createdAt,value
2023-01-13T00:04:22.222Z,27.00
2023-01-13T00:09:24.321Z,27.10
2023-01-13T00:14:29.623Z,27.30
2023-01-13T00:19:31.721Z,27.40
2023-01-13T00:24:33.811Z,27.50
2023-01-13T00:29:36.267Z,27.50
2023-01-13T00:39:41.304Z,27.40
2023-01-13T00:44:43.400Z,27.60
2023-01-13T00:49:45.501Z,27.60
2023-01-13T00:54:47.572Z,27.60
2023-01-13T00:59:49.821Z,27.60
2023-01-13T01:04:51.930Z,27.60
2023-01-13T01:09:53.979Z,27.80
2023-01-13T01:14:56.033Z,28.20
2023-01-13T01:19:58.094Z,27.70
2023-01-13T01:25:00.232Z,28.20
2023-01-13T01:30:02.269Z,28.30
2023-01-13T01:35:04.746Z,28.20
2023-01-13T01:45:19.340Z,28.20
2023-01-13T01:50:21.475Z,28.70
2023-01-13T01:55:29.450Z,28.70
2023-01-13T02:05:36.951Z,28.60
2023-01-13T02:10:41.436Z,28.80
2023-01-13T02:16:16.999Z,28.70
2023-01-13T02:21:25.204Z,28.70
2023-01-13T02:27:04.302Z,28.60
2023-01-13T02:32:21.014Z,28.60
2023-01-13T02:37:29.948Z,28.60
2023-01-13T02:42:58.452Z,28.50
2023-01-13T02:48:04.733Z,28.40
2023-01-13T02:53:25.142Z,28.30
2023-01-13T02:58:29.737Z,28.20
2023-01-13T03:03:31.827Z,28.20
2023-01-13T03:08:46.605Z,29.00
2023-01-13T03:14:03.701Z,28.20
2023-01-13T03:19:26.532Z,28.20
2023-01-13T03:24:43.066Z,28.30
2023-01-13T03:29:45.555Z,28.30
2023-01-13T03:34:51.594Z,28.20
2023-01-13T03:39:59.171Z,28.20
2023-01-13T03:45:12.605Z,28.40
2023-01-13T03:50:14.873Z,28.30
2023-01-13T03:55:20.899Z,28.30
2023-01-13T04:00:30.225Z,28.10
2023-01-13T04:05:36.028Z,28.20
2023-01-13T04:10:45.443Z,28.20
2023-01-13T04:15:49.735Z,28.10
2023-01-13T04:20:53.829Z,28.10
2023-01-13T04:25:56.563Z,28.00
2023-01-13T04:30:58.603Z,28.00
2023-01-13T04:36:00.717Z,27.90
2023-01-13T04:41:02.882Z,27.90
2023-01-13T04:46:05.205Z,27.90
2023-01-13T04:51:07.327Z,27.70
2023-01-13T04:56:09.371Z,27.70
2023-01-13T05:01:11.570Z,27.50
2023-01-13T05:11:35.019Z,27.50
2023-01-13T05:16:56.068Z,27.20
2023-01-13T05:27:19.485Z,27.30
2023-01-13T05:32:22.747Z,27.20
2023-01-13T05:37:25.901Z,27.10
2023-01-13T05:42:46.769Z,27.10
2023-01-13T05:52:51.398Z,27.00
2023-01-13T05:57:53.572Z,27.20
2023-01-13T06:07:59.331Z,27.50
2023-01-13T06:13:01.779Z,27.70
2023-01-13T06:18:04.861Z,28.10
2023-01-13T06:23:10.834Z,27.90
2023-01-13T06:28:13.027Z,28.30
2023-01-13T06:33:21.232Z,28.20
2023-01-13T06:38:27.327Z,28.00
2023-01-13T06:43:29.549Z,27.90
2023-01-13T06:48:35.055Z,27.70
2023-01-13T06:53:37.200Z,27.70
2023-01-13T06:58:39.456Z,27.70
2023-01-13T07:03:41.705Z,27.50
2023-01-13T07:08:43.885Z,27.60
2023-01-13T07:14:04.574Z,27.90
2023-01-13T07:19:06.794Z,28.10
2023-01-13T07:24:08.932Z,27.80
2023-01-13T07:29:11.394Z,27.20
2023-01-13T07:34:13.562Z,27.20
2023-01-13T07:39:15.733Z,27.20
2023-01-13T07:44:17.855Z,27.70
2023-01-13T07:54:39.111Z,27.30
2023-01-13T07:59:42.238Z,27.00
2023-01-13T08:04:44.371Z,27.00
2023-01-13T08:09:46.660Z,27.00
2023-01-13T08:19:52.921Z,26.90
2023-01-13T08:24:55.118Z,27.00
2023-01-13T08:29:57.426Z,27.20
2023-01-13T08:34:59.770Z,27.30
2023-01-13T08:40:02.080Z,27.30
2023-01-13T08:45:07.431Z,27.40
2023-01-13T08:50:10.765Z,27.20
2023-01-13T08:55:13.036Z,27.20
2023-01-13T09:05:19.724Z,27.00
2023-01-13T09:10:22.083Z,27.20
2023-01-13T09:15:24.234Z,27.10
2023-01-13T09:20:26.381Z,27.20
2023-01-13T09:25:28.643Z,27.20
2023-01-13T09:35:33.586Z,27.40
2023-01-13T09:40:39.783Z,27.40
2023-01-13T09:46:01.796Z,27.40
2023-01-13T09:51:16.660Z,27.10
2023-01-13T09:56:18.911Z,27.10
2023-01-13T10:01:39.020Z,27.30
2023-01-13T10:06:46.748Z,27.40
2023-01-13T10:12:08.823Z,27.30
2023-01-13T10:17:38.567Z,26.90
2023-01-13T10:27:47.016Z,24.80
2023-01-13T10:32:59.155Z,24.00
2023-01-13T10:38:01.296Z,23.80
2023-01-13T10:43:06.425Z,23.80
2023-01-13T10:48:14.839Z,24.40
2023-01-13T10:53:24.212Z,23.30
2023-01-13T10:58:27.699Z,22.30
2023-01-13T11:03:43.032Z,22.30
2023-01-13T11:08:48.380Z,22.30
2023-01-13T11:19:18.266Z,21.00
2023-01-13T11:24:46.093Z,20.10
2023-01-13T11:35:02.292Z,21.40
2023-01-13T11:40:14.712Z,20.70
2023-01-13T11:45:38.400Z,17.90
2023-01-13T11:50:48.226Z,20.10
2023-01-13T11:55:59.129Z,19.80
2023-01-13T12:01:32.489Z,19.20
2023-01-13T12:06:40.106Z,19.10
2023-01-13T12:12:19.268Z,18.50
2023-01-13T12:17:38.452Z,18.40
2023-01-13T12:22:42.617Z,18.40
2023-01-13T12:28:07.681Z,17.70
2023-01-13T12:33:29.220Z,18.20
2023-01-13T12:38:42.326Z,16.20
2023-01-13T12:44:07.188Z,16.00
2023-01-13T12:49:20.522Z,16.60
2023-01-13T12:59:40.854Z,16.60
2023-01-13T13:04:49.217Z,16.70
2023-01-13T13:09:57.376Z,16.50
2023-01-13T13:15:03.229Z,16.00
2023-01-13T13:20:44.572Z,16.30
2023-01-13T13:26:11.714Z,14.20
2023-01-13T13:37:05.846Z,17.50
2023-01-13T13:42:39.722Z,18.50
2023-01-13T13:47:42.032Z,19.90
2023-01-13T13:53:05.149Z,19.10
2023-01-13T13:58:17.645Z,20.30
2023-01-13T14:03:34.071Z,20.80
2023-01-13T14:08:38.892Z,20.30
2023-01-13T14:13:41.173Z,21.30
2023-01-13T14:18:47.370Z,20.70
2023-01-13T14:23:52.358Z,20.60
2023-01-13T14:28:56.298Z,20.20
2023-01-13T14:34:02.814Z,20.10
2023-01-13T14:39:33.393Z,20.20
2023-01-13T14:44:36.924Z,19.90
2023-01-13T14:49:49.783Z,19.90
2023-01-13T14:54:54.919Z,19.90
2023-01-13T15:00:19.113Z,19.20
2023-01-13T15:05:23.975Z,19.40
2023-01-13T15:10:32.469Z,19.20
2023-01-13T15:20:42.357Z,18.80
2023-01-13T15:25:44.525Z,19.10
2023-01-13T15:30:47.761Z,18.90
2023-01-13T15:35:52.277Z,19.00
2023-01-13T15:40:54.368Z,18.70
2023-01-13T15:46:14.905Z,18.90
2023-01-13T15:51:16.964Z,18.90
2023-01-13T15:56:26.764Z,19.20
2023-01-13T16:01:28.913Z,19.10
2023-01-13T16:11:38.572Z,19.50
2023-01-13T16:16:40.933Z,19.40
2023-01-13T16:21:43.314Z,19.40
2023-01-13T16:26:45.538Z,19.60
2023-01-13T16:31:47.675Z,19.40
2023-01-13T16:36:50.250Z,19.50
2023-01-13T16:41:52.399Z,19.60
2023-01-13T16:46:54.534Z,19.70
2023-01-13T16:51:56.666Z,19.60
2023-01-13T16:56:58.775Z,19.70
2023-01-13T17:02:01.918Z,19.70
2023-01-13T17:07:06.255Z,19.70
2023-01-13T17:12:09.950Z,19.50
2023-01-13T17:17:27.012Z,19.80
2023-01-13T17:22:30.796Z,19.70
2023-01-13T17:27:33.089Z,19.90
2023-01-13T17:32:35.350Z,19.90
2023-01-13T17:37:37.441Z,20.20
2023-01-13T17:42:39.573Z,20.30
2023-01-13T17:47:41.753Z,20.40
2023-01-13T17:52:43.874Z,20.30
2023-01-13T17:57:45.923Z,20.40
2023-01-13T18:02:48.121Z,20.60
2023-01-13T18:07:51.120Z,20.90
2023-01-13T18:12:53.214Z,20.80
2023-01-13T18:17:56.136Z,20.90
2023-01-13T18:23:16.725Z,21.00
2023-01-13T18:28:18.842Z,21.10
2023-01-13T18:33:21.225Z,21.10
2023-01-13T18:38:26.707Z,21.00
2023-01-13T18:43:32.237Z,21.10
2023-01-13T18:53:37.001Z,20.80
2023-01-13T18:58:43.889Z,20.80
2023-01-13T19:03:45.974Z,20.80
2023-01-13T19:08:53.044Z,21.00
2023-01-13T19:13:55.176Z,21.00
2023-01-13T19:18:57.336Z,21.30
2023-01-13T19:23:59.500Z,21.10
2023-01-13T19:29:01.725Z,21.20
2023-01-13T19:34:03.907Z,21.40
2023-01-13T19:39:05.991Z,21.60
2023-01-13T19:44:29.922Z,21.50
2023-01-13T19:49:33.078Z,22.10
2023-01-13T19:54:35.401Z,22.10
2023-01-13T19:59:40.750Z,22.00
2023-01-13T20:09:52.212Z,22.10
2023-01-13T20:14:54.830Z,22.30
2023-01-13T20:19:58.944Z,22.00
2023-01-13T20:25:01.022Z,22.40
2023-01-13T20:30:04.093Z,22.30
2023-01-13T20:35:07.516Z,22.60
2023-01-13T20:40:15.999Z,23.10
2023-01-13T20:45:22.648Z,22.90
2023-01-13T20:50:24.737Z,22.90
2023-01-13T20:55:26.885Z,23.00
2023-01-13T21:00:29.759Z,23.10
2023-01-13T21:05:34.106Z,23.20
2023-01-13T21:10:36.228Z,23.20
2023-01-13T21:15:38.340Z,23.00
2023-01-13T21:20:40.592Z,23.20
2023-01-13T21:25:44.190Z,23.20
2023-01-13T21:35:49.875Z,23.10
2023-01-13T21:41:05.852Z,23.20
2023-01-13T21:46:34.094Z,23.40
2023-01-13T21:51:36.502Z,23.50
2023-01-13T21:56:38.663Z,23.50
2023-01-13T22:02:04.775Z,23.50
2023-01-13T22:07:04.568Z,23.50
2023-01-13T22:12:06.793Z,23.40
2023-01-13T22:17:09.237Z,23.70
2023-01-13T22:22:14.393Z,23.70
2023-01-13T22:27:19.247Z,23.70
2023-01-13T22:37:23.876Z,23.40
2023-01-13T22:42:26.215Z,23.50
2023-01-13T22:47:31.228Z,23.40
2023-01-13T22:52:34.639Z,23.30
2023-01-13T22:57:47.403Z,23.10
2023-01-13T23:02:50.182Z,23.10
2023-01-13T23:07:52.315Z,23.20
2023-01-13T23:12:54.489Z,23.00
2023-01-13T23:17:57.064Z,22.90
2023-01-13T23:22:59.203Z,22.90
2023-01-13T23:28:01.403Z,22.90
2023-01-13T23:38:06.151Z,22.90
2023-01-13T23:43:08.218Z,22.90
2023-01-13T23:48:11.222Z,22.90
2023-01-13T23:53:13.345Z,23.00
2023-01-13T23:58:15.552Z,22.90
